Terminal Aerodrome Forecast
Issued by NWS

Home | Current Version | Previous Version | Text Only | Print | Product List | Glossary On
Versions: 1 2 3 4 5 6 7 8 9 10 11 12 13 14 15
000
FTUS41 KLWX 031801 AAA
TAFMTN
TAF AMD
KMTN 031801Z 0318/0418 34004KT 5SM -SNPL OVC050
     FM031900 14006KT 5SM -FZRAPL OVC030
     FM032200 13008KT 3SM -FZRA BR OVC015
     FM040300 22007KT 2SM BR OVC004
     FM041300 25005KT 2SM -RA OVC004=

USA.gov is the U.S. government's official web portal to all federal, state and local government web resources and services.